sensor_id;sensor_type;location;lat;lon;timestamp;P1;P2;P0
63662;PMS5003;49815;51.618;0.336;2023-03-01T00:01:28;14;11;
63662;PMS5003;49815;51.618;0.336;2023-03-01T00:03:53;9;9;
63662;PMS5003;49815;51.618;0.336;2023-03-01T00:06:19;12;9;
63662;PMS5003;49815;51.618;0.336;2023-03-01T00:08:44;11;10;
63662;PMS5003;49815;51.618;0.336;2023-03-01T00:11:10;9;9;
63662;PMS5003;49815;51.618;0.336;2023-03-01T00:13:35;15;14;
63662;PMS5003;49815;51.618;0.336;2023-03-01T00:16:01;17;10;
63662;PMS5003;49815;51.618;0.336;2023-03-01T00:18:25;11;11;
63662;PMS5003;49815;51.618;0.336;2023-03-01T00:20:51;11;11;
63662;PMS5003;49815;51.618;0.336;2023-03-01T00:23:16;14;11;
63662;PMS5003;49815;51.618;0.336;2023-03-01T00:25:42;14;9;
63662;PMS5003;49815;51.618;0.336;2023-03-01T00:28:07;10;9;
63662;PMS5003;49815;51.618;0.336;2023-03-01T00:30:33;8;8;
63662;PMS5003;49815;51.618;0.336;2023-03-01T00:32:59;8;7;
63662;PMS5003;49815;51.618;0.336;2023-03-01T00:35:24;9;9;
63662;PMS5003;49815;51.618;0.336;2023-03-01T00:37:50;10;10;
63662;PMS5003;49815;51.618;0.336;2023-03-01T00:40:16;7;7;
63662;PMS5003;49815;51.618;0.336;2023-03-01T00:42:41;8;8;
63662;PMS5003;49815;51.618;0.336;2023-03-01T00:45:07;10;8;
63662;PMS5003;49815;51.618;0.336;2023-03-01T00:47:32;7;7;
63662;PMS5003;49815;51.618;0.336;2023-03-01T00:49:58;7;7;
63662;PMS5003;49815;51.618;0.336;2023-03-01T00:52:24;7;7;
63662;PMS5003;49815;51.618;0.336;2023-03-01T00:54:51;7;7;
63662;PMS5003;49815;51.618;0.336;2023-03-01T00:57:15;12;10;
63662;PMS5003;49815;51.618;0.336;2023-03-01T00:59:41;8;8;
63662;PMS5003;49815;51.618;0.336;2023-03-01T01:02:06;8;7;
63662;PMS5003;49815;51.618;0.336;2023-03-01T01:04:32;9;9;
63662;PMS5003;49815;51.618;0.336;2023-03-01T01:06:58;11;9;
63662;PMS5003;49815;51.618;0.336;2023-03-01T01:09:23;9;9;
63662;PMS5003;49815;51.618;0.336;2023-03-01T01:11:50;8;8;
63662;PMS5003;49815;51.618;0.336;2023-03-01T01:14:15;9;8;
63662;PMS5003;49815;51.618;0.336;2023-03-01T01:16:40;7;7;
63662;PMS5003;49815;51.618;0.336;2023-03-01T01:19:06;10;8;
63662;PMS5003;49815;51.618;0.336;2023-03-01T01:21:31;7;7;
63662;PMS5003;49815;51.618;0.336;2023-03-01T01:23:57;9;9;
63662;PMS5003;49815;51.618;0.336;2023-03-01T01:26:24;9;8;
63662;PMS5003;49815;51.618;0.336;2023-03-01T01:28:49;8;8;
63662;PMS5003;49815;51.618;0.336;2023-03-01T01:31:14;10;9;
63662;PMS5003;49815;51.618;0.336;2023-03-01T01:33:39;14;13;
63662;PMS5003;49815;51.618;0.336;2023-03-01T01:36:05;9;8;
63662;PMS5003;49815;51.618;0.336;2023-03-01T01:38:31;15;8;
63662;PMS5003;49815;51.618;0.336;2023-03-01T01:40:56;14;9;
63662;PMS5003;49815;51.618;0.336;2023-03-01T01:43:23;11;10;
63662;PMS5003;49815;51.618;0.336;2023-03-01T01:45:48;12;9;
63662;PMS5003;49815;51.618;0.336;2023-03-01T01:48:14;8;8;
63662;PMS5003;49815;51.618;0.336;2023-03-01T01:50:39;9;9;
63662;PMS5003;49815;51.618;0.336;2023-03-01T01:53:05;10;8;
63662;PMS5003;49815;51.618;0.336;2023-03-01T01:55:30;9;8;
63662;PMS5003;49815;51.618;0.336;2023-03-01T01:57:57;7;7;
63662;PMS5003;49815;51.618;0.336;2023-03-01T02:00:22;8;7;
63662;PMS5003;49815;51.618;0.336;2023-03-01T02:02:48;8;8;
63662;PMS5003;49815;51.618;0.336;2023-03-01T02:05:14;11;11;
63662;PMS5003;49815;51.618;0.336;2023-03-01T02:07:39;9;8;
63662;PMS5003;49815;51.618;0.336;2023-03-01T02:10:05;12;9;
63662;PMS5003;49815;51.618;0.336;2023-03-01T02:12:30;10;9;
63662;PMS5003;49815;51.618;0.336;2023-03-01T02:14:56;10;8;
63662;PMS5003;49815;51.618;0.336;2023-03-01T02:17:21;9;7;
63662;PMS5003;49815;51.618;0.336;2023-03-01T02:19:50;8;7;
63662;PMS5003;49815;51.618;0.336;2023-03-01T02:22:15;7;7;
63662;PMS5003;49815;51.618;0.336;2023-03-01T02:24:40;10;6;
63662;PMS5003;49815;51.618;0.336;2023-03-01T02:27:04;5;5;
63662;PMS5003;49815;51.618;0.336;2023-03-01T02:29:30;4;4;
63662;PMS5003;49815;51.618;0.336;2023-03-01T02:31:56;7;4;
63662;PMS5003;49815;51.618;0.336;2023-03-01T02:34:22;10;9;
63662;PMS5003;49815;51.618;0.336;2023-03-01T02:36:47;8;4;
63662;PMS5003;49815;51.618;0.336;2023-03-01T02:39:13;5;5;
63662;PMS5003;49815;51.618;0.336;2023-03-01T02:41:37;4;4;
63662;PMS5003;49815;51.618;0.336;2023-03-01T02:44:03;3;3;
63662;PMS5003;49815;51.618;0.336;2023-03-01T02:46:28;8;8;
63662;PMS5003;49815;51.618;0.336;2023-03-01T02:48:55;4;3;
63662;PMS5003;49815;51.618;0.336;2023-03-01T02:51:24;9;9;
63662;PMS5003;49815;51.618;0.336;2023-03-01T02:53:48;8;5;
63662;PMS5003;49815;51.618;0.336;2023-03-01T02:56:11;7;6;
63662;PMS5003;49815;51.618;0.336;2023-03-01T02:58:36;10;8;
63662;PMS5003;49815;51.618;0.336;2023-03-01T03:01:02;7;4;
63662;PMS5003;49815;51.618;0.336;2023-03-01T03:03:28;4;4;
63662;PMS5003;49815;51.618;0.336;2023-03-01T03:05:54;8;7;
63662;PMS5003;49815;51.618;0.336;2023-03-01T03:08:19;8;7;
63662;PMS5003;49815;51.618;0.336;2023-03-01T03:10:45;4;4;
63662;PMS5003;49815;51.618;0.336;2023-03-01T03:13:11;7;6;
63662;PMS5003;49815;51.618;0.336;2023-03-01T03:15:36;7;7;
63662;PMS5003;49815;51.618;0.336;2023-03-01T03:18:02;4;4;
63662;PMS5003;49815;51.618;0.336;2023-03-01T03:20:28;4;4;
63662;PMS5003;49815;51.618;0.336;2023-03-01T03:22:54;5;4;
63662;PMS5003;49815;51.618;0.336;2023-03-01T03:25:19;6;6;
63662;PMS5003;49815;51.618;0.336;2023-03-01T03:27:46;6;6;
63662;PMS5003;49815;51.618;0.336;2023-03-01T03:30:12;4;4;
63662;PMS5003;49815;51.618;0.336;2023-03-01T03:32:36;6;6;
63662;PMS5003;49815;51.618;0.336;2023-03-01T03:35:02;6;6;
63662;PMS5003;49815;51.618;0.336;2023-03-01T03:37:27;4;4;
63662;PMS5003;49815;51.618;0.336;2023-03-01T03:39:53;4;4;
63662;PMS5003;49815;51.618;0.336;2023-03-01T03:42:19;7;4;
63662;PMS5003;49815;51.618;0.336;2023-03-01T03:44:44;5;5;
63662;PMS5003;49815;51.618;0.336;2023-03-01T03:47:10;4;4;
63662;PMS5003;49815;51.618;0.336;2023-03-01T03:49:36;8;5;
63662;PMS5003;49815;51.618;0.336;2023-03-01T03:52:01;5;5;
63662;PMS5003;49815;51.618;0.336;2023-03-01T03:54:27;4;4;
63662;PMS5003;49815;51.618;0.336;2023-03-01T03:56:53;5;5;
63662;PMS5003;49815;51.618;0.336;2023-03-01T03:59:19;6;6;
63662;PMS5003;49815;51.618;0.336;2023-03-01T04:01:44;6;6;
63662;PMS5003;49815;51.618;0.336;2023-03-01T04:04:10;6;3;
63662;PMS5003;49815;51.618;0.336;2023-03-01T04:06:36;7;7;
63662;PMS5003;49815;51.618;0.336;2023-03-01T04:09:01;6;6;
63662;PMS5003;49815;51.618;0.336;2023-03-01T04:11:27;7;6;
63662;PMS5003;49815;51.618;0.336;2023-03-01T04:13:53;4;4;
63662;PMS5003;49815;51.618;0.336;2023-03-01T04:16:18;3;3;
63662;PMS5003;49815;51.618;0.336;2023-03-01T04:18:44;7;4;
63662;PMS5003;49815;51.618;0.336;2023-03-01T04:21:10;4;4;
63662;PMS5003;49815;51.618;0.336;2023-03-01T04:23:35;4;4;
63662;PMS5003;49815;51.618;0.336;2023-03-01T04:26:01;6;3;
63662;PMS5003;49815;51.618;0.336;2023-03-01T04:28:27;6;6;
63662;PMS5003;49815;51.618;0.336;2023-03-01T04:30:52;3;3;
63662;PMS5003;49815;51.618;0.336;2023-03-01T04:33:18;6;6;
63662;PMS5003;49815;51.618;0.336;2023-03-01T04:35:44;4;4;
63662;PMS5003;49815;51.618;0.336;2023-03-01T04:38:09;4;4;
63662;PMS5003;49815;51.618;0.336;2023-03-01T04:40:35;4;4;
63662;PMS5003;49815;51.618;0.336;2023-03-01T04:43:01;5;5;
63662;PMS5003;49815;51.618;0.336;2023-03-01T04:45:27;4;2;
63662;PMS5003;49815;51.618;0.336;2023-03-01T04:47:52;6;6;
63662;PMS5003;49815;51.618;0.336;2023-03-01T04:50:18;3;3;
63662;PMS5003;49815;51.618;0.336;2023-03-01T04:52:43;5;5;
63662;PMS5003;49815;51.618;0.336;2023-03-01T04:55:09;5;5;
63662;PMS5003;49815;51.618;0.336;2023-03-01T04:57:35;4;4;
63662;PMS5003;49815;51.618;0.336;2023-03-01T05:00:00;11;7;
63662;PMS5003;49815;51.618;0.336;2023-03-01T05:02:26;8;8;
63662;PMS5003;49815;51.618;0.336;2023-03-01T05:04:52;5;5;
63662;PMS5003;49815;51.618;0.336;2023-03-01T05:07:18;4;4;
63662;PMS5003;49815;51.618;0.336;2023-03-01T05:09:43;3;3;
63662;PMS5003;49815;51.618;0.336;2023-03-01T05:12:09;7;7;
63662;PMS5003;49815;51.618;0.336;2023-03-01T05:14:35;5;5;
63662;PMS5003;49815;51.618;0.336;2023-03-01T05:17:00;5;4;
63662;PMS5003;49815;51.618;0.336;2023-03-01T05:19:26;4;4;
63662;PMS5003;49815;51.618;0.336;2023-03-01T05:21:51;7;7;
63662;PMS5003;49815;51.618;0.336;2023-03-01T05:24:17;7;7;
63662;PMS5003;49815;51.618;0.336;2023-03-01T05:26:43;9;8;
63662;PMS5003;49815;51.618;0.336;2023-03-01T05:29:09;4;4;
63662;PMS5003;49815;51.618;0.336;2023-03-01T05:31:34;3;3;
63662;PMS5003;49815;51.618;0.336;2023-03-01T05:34:00;4;4;
63662;PMS5003;49815;51.618;0.336;2023-03-01T05:36:26;11;11;
63662;PMS5003;49815;51.618;0.336;2023-03-01T05:38:51;16;15;
63662;PMS5003;49815;51.618;0.336;2023-03-01T05:41:17;9;9;
63662;PMS5003;49815;51.618;0.336;2023-03-01T05:43:43;8;8;
63662;PMS5003;49815;51.618;0.336;2023-03-01T05:46:09;18;18;
63662;PMS5003;49815;51.618;0.336;2023-03-01T05:48:34;6;6;
63662;PMS5003;49815;51.618;0.336;2023-03-01T05:51:00;4;3;
63662;PMS5003;49815;51.618;0.336;2023-03-01T05:53:25;3;3;
63662;PMS5003;49815;51.618;0.336;2023-03-01T05:55:51;9;6;
63662;PMS5003;49815;51.618;0.336;2023-03-01T05:58:17;4;4;
63662;PMS5003;49815;51.618;0.336;2023-03-01T06:00:43;4;4;
63662;PMS5003;49815;51.618;0.336;2023-03-01T06:03:09;8;7;
63662;PMS5003;49815;51.618;0.336;2023-03-01T06:05:34;4;4;
63662;PMS5003;49815;51.618;0.336;2023-03-01T06:08:00;3;3;
63662;PMS5003;49815;51.618;0.336;2023-03-01T06:10:25;4;4;
63662;PMS5003;49815;51.618;0.336;2023-03-01T06:12:51;3;3;
63662;PMS5003;49815;51.618;0.336;2023-03-01T06:15:17;3;3;
63662;PMS5003;49815;51.618;0.336;2023-03-01T06:17:43;6;4;
63662;PMS5003;49815;51.618;0.336;2023-03-01T06:20:09;3;2;
63662;PMS5003;49815;51.618;0.336;2023-03-01T06:22:34;3;3;
63662;PMS5003;49815;51.618;0.336;2023-03-01T06:25:00;2;2;
63662;PMS5003;49815;51.618;0.336;2023-03-01T06:27:25;3;3;
63662;PMS5003;49815;51.618;0.336;2023-03-01T06:29:51;6;6;
63662;PMS5003;49815;51.618;0.336;2023-03-01T06:32:17;2;2;
63662;PMS5003;49815;51.618;0.336;2023-03-01T06:34:42;2;2;
63662;PMS5003;49815;51.618;0.336;2023-03-01T06:37:08;2;2;
63662;PMS5003;49815;51.618;0.336;2023-03-01T06:39:34;7;3;
63662;PMS5003;49815;51.618;0.336;2023-03-01T06:41:59;2;2;
63662;PMS5003;49815;51.618;0.336;2023-03-01T06:44:25;4;3;
63662;PMS5003;49815;51.618;0.336;2023-03-01T06:46:51;3;3;
63662;PMS5003;49815;51.618;0.336;2023-03-01T06:49:16;3;3;
63662;PMS5003;49815;51.618;0.336;2023-03-01T06:51:42;3;3;
63662;PMS5003;49815;51.618;0.336;2023-03-01T06:54:08;3;3;
63662;PMS5003;49815;51.618;0.336;2023-03-01T06:56:34;7;6;
63662;PMS5003;49815;51.618;0.336;2023-03-01T06:58:59;3;3;
63662;PMS5003;49815;51.618;0.336;2023-03-01T07:01:25;4;4;
63662;PMS5003;49815;51.618;0.336;2023-03-01T07:03:51;3;3;
63662;PMS5003;49815;51.618;0.336;2023-03-01T07:06:16;4;4;
63662;PMS5003;49815;51.618;0.336;2023-03-01T07:08:42;3;3;
63662;PMS5003;49815;51.618;0.336;2023-03-01T07:11:08;2;2;
63662;PMS5003;49815;51.618;0.336;2023-03-01T07:13:34;4;4;
63662;PMS5003;49815;51.618;0.336;2023-03-01T07:15:59;4;2;
63662;PMS5003;49815;51.618;0.336;2023-03-01T07:18:25;3;3;
63662;PMS5003;49815;51.618;0.336;2023-03-01T07:20:50;4;4;
63662;PMS5003;49815;51.618;0.336;2023-03-01T07:23:16;2;2;
63662;PMS5003;49815;51.618;0.336;2023-03-01T07:25:42;2;2;
63662;PMS5003;49815;51.618;0.336;2023-03-01T07:28:08;3;2;
63662;PMS5003;49815;51.618;0.336;2023-03-01T07:30:33;3;3;
63662;PMS5003;49815;51.618;0.336;2023-03-01T07:32:59;3;3;
63662;PMS5003;49815;51.618;0.336;2023-03-01T07:35:25;4;4;
63662;PMS5003;49815;51.618;0.336;2023-03-01T07:37:50;3;3;
63662;PMS5003;49815;51.618;0.336;2023-03-01T07:40:16;4;3;
63662;PMS5003;49815;51.618;0.336;2023-03-01T07:42:42;9;9;
63662;PMS5003;49815;51.618;0.336;2023-03-01T07:45:08;5;5;
63662;PMS5003;49815;51.618;0.336;2023-03-01T07:47:33;6;6;
63662;PMS5003;49815;51.618;0.336;2023-03-01T07:49:59;8;6;
63662;PMS5003;49815;51.618;0.336;2023-03-01T07:52:24;3;3;
63662;PMS5003;49815;51.618;0.336;2023-03-01T07:54:50;5;5;
63662;PMS5003;49815;51.618;0.336;2023-03-01T07:57:16;4;4;
63662;PMS5003;49815;51.618;0.336;2023-03-01T07:59:42;5;3;
63662;PMS5003;49815;51.618;0.336;2023-03-01T08:02:07;4;3;
63662;PMS5003;49815;51.618;0.336;2023-03-01T08:04:33;4;3;
63662;PMS5003;49815;51.618;0.336;2023-03-01T08:06:59;3;3;
63662;PMS5003;49815;51.618;0.336;2023-03-01T08:09:24;7;3;
63662;PMS5003;49815;51.618;0.336;2023-03-01T08:11:50;3;3;
63662;PMS5003;49815;51.618;0.336;2023-03-01T08:14:16;5;4;
63662;PMS5003;49815;51.618;0.336;2023-03-01T08:16:41;2;2;
63662;PMS5003;49815;51.618;0.336;2023-03-01T08:19:07;3;3;
63662;PMS5003;49815;51.618;0.336;2023-03-01T08:21:33;4;4;
63662;PMS5003;49815;51.618;0.336;2023-03-01T08:23:58;4;4;
63662;PMS5003;49815;51.618;0.336;2023-03-01T08:26:24;1;1;
63662;PMS5003;49815;51.618;0.336;2023-03-01T08:28:50;1;1;
63662;PMS5003;49815;51.618;0.336;2023-03-01T08:31:16;1;1;
63662;PMS5003;49815;51.618;0.336;2023-03-01T08:33:41;5;4;
63662;PMS5003;49815;51.618;0.336;2023-03-01T08:36:07;2;2;
63662;PMS5003;49815;51.618;0.336;2023-03-01T08:38:33;3;2;
63662;PMS5003;49815;51.618;0.336;2023-03-01T08:40:59;2;2;
63662;PMS5003;49815;51.618;0.336;2023-03-01T08:43:23;4;3;
63662;PMS5003;49815;51.618;0.336;2023-03-01T08:45:49;3;3;
63662;PMS5003;49815;51.618;0.336;2023-03-01T08:48:15;2;2;
63662;PMS5003;49815;51.618;0.336;2023-03-01T08:50:40;3;2;
63662;PMS5003;49815;51.618;0.336;2023-03-01T08:53:06;3;3;
63662;PMS5003;49815;51.618;0.336;2023-03-01T08:55:31;3;3;
63662;PMS5003;49815;51.618;0.336;2023-03-01T08:57:57;2;2;
63662;PMS5003;49815;51.618;0.336;2023-03-01T09:00:23;3;3;
63662;PMS5003;49815;51.618;0.336;2023-03-01T09:02:48;3;3;
63662;PMS5003;49815;51.618;0.336;2023-03-01T09:05:14;5;4;
63662;PMS5003;49815;51.618;0.336;2023-03-01T09:07:39;7;4;
63662;PMS5003;49815;51.618;0.336;2023-03-01T09:10:05;4;4;
63662;PMS5003;49815;51.618;0.336;2023-03-01T09:12:31;4;4;
63662;PMS5003;49815;51.618;0.336;2023-03-01T09:14:56;2;2;
63662;PMS5003;49815;51.618;0.336;2023-03-01T09:17:22;5;5;
63662;PMS5003;49815;51.618;0.336;2023-03-01T09:19:48;3;3;
63662;PMS5003;49815;51.618;0.336;2023-03-01T09:22:13;4;4;
63662;PMS5003;49815;51.618;0.336;2023-03-01T09:24:39;3;3;
63662;PMS5003;49815;51.618;0.336;2023-03-01T09:27:05;3;2;
63662;PMS5003;49815;51.618;0.336;2023-03-01T09:29:30;3;3;
63662;PMS5003;49815;51.618;0.336;2023-03-01T09:31:56;2;2;
63662;PMS5003;49815;51.618;0.336;2023-03-01T09:34:22;3;3;
63662;PMS5003;49815;51.618;0.336;2023-03-01T09:36:47;5;2;
63662;PMS5003;49815;51.618;0.336;2023-03-01T09:39:12;2;2;
63662;PMS5003;49815;51.618;0.336;2023-03-01T09:41:43;1;1;
63662;PMS5003;49815;51.618;0.336;2023-03-01T09:44:05;1;1;
63662;PMS5003;49815;51.618;0.336;2023-03-01T09:46:29;3;1;
63662;PMS5003;49815;51.618;0.336;2023-03-01T09:48:56;0;0;
63662;PMS5003;49815;51.618;0.336;2023-03-01T09:51:22;1;1;
63662;PMS5003;49815;51.618;0.336;2023-03-01T09:53:46;0;0;
63662;PMS5003;49815;51.618;0.336;2023-03-01T09:56:13;1;1;
63662;PMS5003;49815;51.618;0.336;2023-03-01T09:58:40;0;0;
63662;PMS5003;49815;51.618;0.336;2023-03-01T10:01:04;1;1;
63662;PMS5003;49815;51.618;0.336;2023-03-01T10:03:31;2;2;
63662;PMS5003;49815;51.618;0.336;2023-03-01T10:05:56;1;1;
63662;PMS5003;49815;51.618;0.336;2023-03-01T10:08:29;1;1;
63662;PMS5003;49815;51.618;0.336;2023-03-01T10:10:46;1;0;
63662;PMS5003;49815;51.618;0.336;2023-03-01T10:13:14;1;1;
63662;PMS5003;49815;51.618;0.336;2023-03-01T10:15:39;1;1;
63662;PMS5003;49815;51.618;0.336;2023-03-01T10:18:03;1;0;
63662;PMS5003;49815;51.618;0.336;2023-03-01T10:20:29;0;0;
63662;PMS5003;49815;51.618;0.336;2023-03-01T10:22:53;0;0;
63662;PMS5003;49815;51.618;0.336;2023-03-01T10:25:23;0;0;
63662;PMS5003;49815;51.618;0.336;2023-03-01T10:27:47;1;1;
63662;PMS5003;49815;51.618;0.336;2023-03-01T10:30:12;0;0;
63662;PMS5003;49815;51.618;0.336;2023-03-01T10:32:35;2;1;
63662;PMS5003;49815;51.618;0.336;2023-03-01T10:35:13;3;0;
63662;PMS5003;49815;51.618;0.336;2023-03-01T10:37:26;1;1;
63662;PMS5003;49815;51.618;0.336;2023-03-01T10:39:56;1;1;
63662;PMS5003;49815;51.618;0.336;2023-03-01T10:42:19;2;0;
63662;PMS5003;49815;51.618;0.336;2023-03-01T10:44:44;1;1;
63662;PMS5003;49815;51.618;0.336;2023-03-01T10:47:13;0;0;
63662;PMS5003;49815;51.618;0.336;2023-03-01T10:49:34;2;1;
63662;PMS5003;49815;51.618;0.336;2023-03-01T10:52:10;2;1;
63662;PMS5003;49815;51.618;0.336;2023-03-01T10:54:26;0;0;
63662;PMS5003;49815;51.618;0.336;2023-03-01T10:56:51;1;1;
63662;PMS5003;49815;51.618;0.336;2023-03-01T10:59:21;0;0;
63662;PMS5003;49815;51.618;0.336;2023-03-01T11:01:42;0;0;
63662;PMS5003;49815;51.618;0.336;2023-03-01T11:04:11;1;1;
63662;PMS5003;49815;51.618;0.336;2023-03-01T11:06:33;0;0;
63662;PMS5003;49815;51.618;0.336;2023-03-01T11:09:01;0;0;
63662;PMS5003;49815;51.618;0.336;2023-03-01T11:11:28;0;0;
63662;PMS5003;49815;51.618;0.336;2023-03-01T11:13:51;2;1;
63662;PMS5003;49815;51.618;0.336;2023-03-01T11:16:15;1;1;
63662;PMS5003;49815;51.618;0.336;2023-03-01T11:18:41;0;0;
63662;PMS5003;49815;51.618;0.336;2023-03-01T11:21:06;1;1;
63662;PMS5003;49815;51.618;0.336;2023-03-01T11:23:32;1;1;
63662;PMS5003;49815;51.618;0.336;2023-03-01T11:25:59;2;0;
63662;PMS5003;49815;51.618;0.336;2023-03-01T11:28:23;0;0;
63662;PMS5003;49815;51.618;0.336;2023-03-01T11:30:50;2;2;
63662;PMS5003;49815;51.618;0.336;2023-03-01T11:33:16;1;1;
63662;PMS5003;49815;51.618;0.336;2023-03-01T11:35:42;2;2;
63662;PMS5003;49815;51.618;0.336;2023-03-01T11:38:11;1;1;
63662;PMS5003;49815;51.618;0.336;2023-03-01T11:40:33;2;2;
63662;PMS5003;49815;51.618;0.336;2023-03-01T11:43:01;2;2;
63662;PMS5003;49815;51.618;0.336;2023-03-01T11:45:22;1;1;
63662;PMS5003;49815;51.618;0.336;2023-03-01T11:47:53;2;2;
63662;PMS5003;49815;51.618;0.336;2023-03-01T11:50:16;3;3;
63662;PMS5003;49815;51.618;0.336;2023-03-01T11:52:41;3;2;
63662;PMS5003;49815;51.618;0.336;2023-03-01T11:55:14;4;2;
63662;PMS5003;49815;51.618;0.336;2023-03-01T11:57:35;2;2;
63662;PMS5003;49815;51.618;0.336;2023-03-01T11:59:59;1;1;
63662;PMS5003;49815;51.618;0.336;2023-03-01T12:04:51;3;1;
63662;PMS5003;49815;51.618;0.336;2023-03-01T12:07:13;2;0;
63662;PMS5003;49815;51.618;0.336;2023-03-01T12:09:41;3;3;
63662;PMS5003;49815;51.618;0.336;2023-03-01T12:12:08;3;2;
63662;PMS5003;49815;51.618;0.336;2023-03-01T12:14:34;2;2;
63662;PMS5003;49815;51.618;0.336;2023-03-01T12:17:00;5;2;
63662;PMS5003;49815;51.618;0.336;2023-03-01T12:19:25;2;2;
63662;PMS5003;49815;51.618;0.336;2023-03-01T12:21:50;2;2;
63662;PMS5003;49815;51.618;0.336;2023-03-01T12:24:19;2;2;
63662;PMS5003;49815;51.618;0.336;2023-03-01T12:26:38;10;6;
63662;PMS5003;49815;51.618;0.336;2023-03-01T12:31:35;4;2;
63662;PMS5003;49815;51.618;0.336;2023-03-01T12:33:54;2;2;
63662;PMS5003;49815;51.618;0.336;2023-03-01T12:38:45;1;1;
63662;PMS5003;49815;51.618;0.336;2023-03-01T12:41:13;4;1;
63662;PMS5003;49815;51.618;0.336;2023-03-01T12:43:39;3;1;
63662;PMS5003;49815;51.618;0.336;2023-03-01T12:46:05;2;2;
63662;PMS5003;49815;51.618;0.336;2023-03-01T12:48:31;1;1;
63662;PMS5003;49815;51.618;0.336;2023-03-01T12:50:52;2;2;
63662;PMS5003;49815;51.618;0.336;2023-03-01T12:53:21;1;1;
63662;PMS5003;49815;51.618;0.336;2023-03-01T12:55:43;2;2;
63662;PMS5003;49815;51.618;0.336;2023-03-01T12:58:12;5;3;
63662;PMS5003;49815;51.618;0.336;2023-03-01T13:00:35;5;5;
63662;PMS5003;49815;51.618;0.336;2023-03-01T13:03:00;3;3;
63662;PMS5003;49815;51.618;0.336;2023-03-01T13:05:29;5;3;
63662;PMS5003;49815;51.618;0.336;2023-03-01T13:07:53;2;2;
63662;PMS5003;49815;51.618;0.336;2023-03-01T13:10:19;2;2;
63662;PMS5003;49815;51.618;0.336;2023-03-01T13:12:44;2;2;
63662;PMS5003;49815;51.618;0.336;2023-03-01T13:17:34;2;2;
63662;PMS5003;49815;51.618;0.336;2023-03-01T13:19:58;2;2;
63662;PMS5003;49815;51.618;0.336;2023-03-01T13:22:26;4;3;
63662;PMS5003;49815;51.618;0.336;2023-03-01T13:24:49;3;3;
63662;PMS5003;49815;51.618;0.336;2023-03-01T13:27:21;4;2;
63662;PMS5003;49815;51.618;0.336;2023-03-01T13:29:44;5;4;
63662;PMS5003;49815;51.618;0.336;2023-03-01T13:32:06;3;3;
63662;PMS5003;49815;51.618;0.336;2023-03-01T13:34:41;3;3;
63662;PMS5003;49815;51.618;0.336;2023-03-01T13:39:27;5;3;
63662;PMS5003;49815;51.618;0.336;2023-03-01T13:41:49;3;3;
63662;PMS5003;49815;51.618;0.336;2023-03-01T13:44:17;3;2;
63662;PMS5003;49815;51.618;0.336;2023-03-01T13:46:40;5;3;
63662;PMS5003;49815;51.618;0.336;2023-03-01T13:49:05;2;2;
63662;PMS5003;49815;51.618;0.336;2023-03-01T13:51:30;3;3;
63662;PMS5003;49815;51.618;0.336;2023-03-01T13:53:56;4;2;
63662;PMS5003;49815;51.618;0.336;2023-03-01T13:56:23;4;2;
63662;PMS5003;49815;51.618;0.336;2023-03-01T13:58:48;3;3;
63662;PMS5003;49815;51.618;0.336;2023-03-01T14:03:40;4;3;
63662;PMS5003;49815;51.618;0.336;2023-03-01T14:06:05;3;3;
63662;PMS5003;49815;51.618;0.336;2023-03-01T14:08:30;3;2;
63662;PMS5003;49815;51.618;0.336;2023-03-01T14:11:05;2;2;
63662;PMS5003;49815;51.618;0.336;2023-03-01T14:13:25;2;2;
63662;PMS5003;49815;51.618;0.336;2023-03-01T14:15:48;3;1;
63662;PMS5003;49815;51.618;0.336;2023-03-01T14:18:12;2;2;
63662;PMS5003;49815;51.618;0.336;2023-03-01T14:20:39;3;3;
63662;PMS5003;49815;51.618;0.336;2023-03-01T14:23:08;2;2;
63662;PMS5003;49815;51.618;0.336;2023-03-01T14:25:29;3;3;
63662;PMS5003;49815;51.618;0.336;2023-03-01T14:27:56;2;2;
63662;PMS5003;49815;51.618;0.336;2023-03-01T14:30:21;2;2;
63662;PMS5003;49815;51.618;0.336;2023-03-01T14:37:36;4;3;
63662;PMS5003;49815;51.618;0.336;2023-03-01T14:40:03;3;2;
63662;PMS5003;49815;51.618;0.336;2023-03-01T14:42:28;2;2;
63662;PMS5003;49815;51.618;0.336;2023-03-01T14:44:53;3;3;
63662;PMS5003;49815;51.618;0.336;2023-03-01T14:47:21;2;2;
63662;PMS5003;49815;51.618;0.336;2023-03-01T14:49:44;3;3;
63662;PMS5003;49815;51.618;0.336;2023-03-01T14:54:36;5;5;
63662;PMS5003;49815;51.618;0.336;2023-03-01T14:57:01;4;3;
63662;PMS5003;49815;51.618;0.336;2023-03-01T14:59:26;4;2;
63662;PMS5003;49815;51.618;0.336;2023-03-01T15:01:53;3;3;
63662;PMS5003;49815;51.618;0.336;2023-03-01T15:04:17;2;2;
63662;PMS5003;49815;51.618;0.336;2023-03-01T15:06:43;4;3;
63662;PMS5003;49815;51.618;0.336;2023-03-01T15:09:12;4;3;
63662;PMS5003;49815;51.618;0.336;2023-03-01T15:11:34;3;3;
63662;PMS5003;49815;51.618;0.336;2023-03-01T15:13:59;3;3;
63662;PMS5003;49815;51.618;0.336;2023-03-01T15:16:25;2;2;
63662;PMS5003;49815;51.618;0.336;2023-03-01T15:18:51;1;1;
63662;PMS5003;49815;51.618;0.336;2023-03-01T15:21:17;1;1;
63662;PMS5003;49815;51.618;0.336;2023-03-01T15:23:41;3;3;
63662;PMS5003;49815;51.618;0.336;2023-03-01T15:28:33;4;2;
63662;PMS5003;49815;51.618;0.336;2023-03-01T15:30:58;2;2;
63662;PMS5003;49815;51.618;0.336;2023-03-01T15:33:29;2;1;
63662;PMS5003;49815;51.618;0.336;2023-03-01T15:35:49;1;1;
63662;PMS5003;49815;51.618;0.336;2023-03-01T15:40:48;4;3;
63662;PMS5003;49815;51.618;0.336;2023-03-01T15:43:06;2;2;
63662;PMS5003;49815;51.618;0.336;2023-03-01T15:45:31;3;2;
63662;PMS5003;49815;51.618;0.336;2023-03-01T15:47:56;3;3;
63662;PMS5003;49815;51.618;0.336;2023-03-01T15:50:22;4;4;
63662;PMS5003;49815;51.618;0.336;2023-03-01T15:52:47;5;5;
63662;PMS5003;49815;51.618;0.336;2023-03-01T15:55:15;6;6;
63662;PMS5003;49815;51.618;0.336;2023-03-01T15:57:38;5;5;
63662;PMS5003;49815;51.618;0.336;2023-03-01T16:00:04;4;4;
63662;PMS5003;49815;51.618;0.336;2023-03-01T16:02:29;5;5;
63662;PMS5003;49815;51.618;0.336;2023-03-01T16:04:55;4;4;
63662;PMS5003;49815;51.618;0.336;2023-03-01T16:07:20;4;4;
63662;PMS5003;49815;51.618;0.336;2023-03-01T16:09:46;4;4;
63662;PMS5003;49815;51.618;0.336;2023-03-01T16:12:12;4;4;
63662;PMS5003;49815;51.618;0.336;2023-03-01T16:14:37;4;2;
63662;PMS5003;49815;51.618;0.336;2023-03-01T16:17:02;3;3;
63662;PMS5003;49815;51.618;0.336;2023-03-01T16:19:28;3;3;
63662;PMS5003;49815;51.618;0.336;2023-03-01T16:21:53;12;9;
63662;PMS5003;49815;51.618;0.336;2023-03-01T16:24:19;6;4;
63662;PMS5003;49815;51.618;0.336;2023-03-01T16:26:45;9;5;
63662;PMS5003;49815;51.618;0.336;2023-03-01T16:29:10;4;4;
63662;PMS5003;49815;51.618;0.336;2023-03-01T16:31:35;5;4;
63662;PMS5003;49815;51.618;0.336;2023-03-01T16:34:02;5;4;
63662;PMS5003;49815;51.618;0.336;2023-03-01T16:36:27;5;4;
63662;PMS5003;49815;51.618;0.336;2023-03-01T16:38:53;11;7;
63662;PMS5003;49815;51.618;0.336;2023-03-01T16:41:18;16;10;
63662;PMS5003;49815;51.618;0.336;2023-03-01T16:43:43;13;12;
63662;PMS5003;49815;51.618;0.336;2023-03-01T16:46:09;5;5;
63662;PMS5003;49815;51.618;0.336;2023-03-01T16:48:34;6;6;
63662;PMS5003;49815;51.618;0.336;2023-03-01T16:51:00;5;4;
63662;PMS5003;49815;51.618;0.336;2023-03-01T16:53:26;5;5;
63662;PMS5003;49815;51.618;0.336;2023-03-01T16:55:54;4;3;
63662;PMS5003;49815;51.618;0.336;2023-03-01T16:58:16;5;5;
63662;PMS5003;49815;51.618;0.336;2023-03-01T17:00:42;4;4;
63662;PMS5003;49815;51.618;0.336;2023-03-01T17:03:08;5;5;